Titolo della pagina

Report METAR

 

LIPA - Aviano (it/Us-Af, Italy
Distance from station: NE 15km
Dati ricevuti: 03/08/2021 15:55
Parz. nuvoloso
Parz. nuvoloso
 Vento da SSO
Vento: SSO 9 km/h
Temperatura: 26°C
P.to Rugiada: 16°C
Umidità: 54%
Barometro: 1013 hPa
Nuvole: Parz. nuvoloso
Visibility: 10 km
Cloud details: Parz. nuvoloso 1524 m
Parz. nuvoloso 2438 m
2021/08/03 13:55 LIPA 031355Z 21005KT 9999 SCT050 SCT080 26/16 Q1013 RMK BKN VIS MIN 9999 WIND THR05 /////KT WIND THR23 /////KT A2992 BLU
LIPH - Treviso(Civ/It-A, Italy
Distance from station: SSO 39km
Dati ricevuti: 03/08/2021 16:50
Few Clouds
Few Clouds
 Vento da O
Vento: O 11 km/h
Temperatura: 28°C
Indice di Calore: 28°C
P.to Rugiada: 16°C
Umidità: 48%
Barometro: 1012 hPa
Nuvole: Few Clouds
Visibility: 10 km
Cloud details: Few Clouds 1219 m
2021/08/03 14:50 LIPH 031450Z 27006KT 220V300 9999 FEW040 28/16 Q1012
 
LIPS - Istrana (it-Afb), Italy
Distance from station: SO 40km
Dati ricevuti: 03/08/2021 15:55
Few Clouds
Few Clouds
 Vento da OSO
Vento: OSO 13 km/h
Temperatura: 28°C
Indice di Calore: 28°C
P.to Rugiada: 17°C
Umidità: 51%
Barometro: 1012 hPa
Nuvole: Few Clouds
Visibility: 10 km
Cloud details: Few Clouds 610 m
2021/08/03 13:55 LIPS 031355Z 24007KT 9999 FEW020 28/17 Q1012 RMK BKN SCT200 VIS MIN 9999 WIND THR26 22005KT WIND THR08 26006KT BLK BLU
LIPI - Rivolto (it-Afb), Italy
Distance from station: E 47km
Dati ricevuti: 03/08/2021 15:55
Parz. nuvoloso
Parz. nuvoloso
 Vento da S
Vento: S 9 km/h
Temperatura: 28°C
Indice di Calore: 28°C
P.to Rugiada: 17°C
Umidità: 51%
Barometro: 1012 hPa
Nuvole: Parz. nuvoloso
Visibility: 10 km
Cloud details: Parz. nuvoloso 1067 m
2021/08/03 13:55 LIPI 031355Z 17005KT 9999 SCT035 28/17 Q1012 RMK BKN SCT120 VIS MIN 9999 WIND THR06 20005KT WIND THR24 22005KT BLU
 
LIPZ - Venezia/Tessera, Italy
Distance from station: S 48km
Dati ricevuti: 03/08/2021 16:50
Few Clouds
Few Clouds
 Vento da SSE
Vento: SSE 13 km/h
Temperatura: 27°C
Indice di Calore: 28°C
P.to Rugiada: 18°C
Umidità: 58%
Barometro: 1012 hPa
Nuvole: Few Clouds
Visibility: 10 km
Cloud details: Few Clouds 762 m
2021/08/03 14:50 LIPZ 031450Z 15007KT 120V190 9999 FEW025 27/18 Q1012 NOSIG
LIVR - Rolle Pass, Italy
Distance from station: NO 65km
Dati ricevuti: 03/08/2021 15:55
Parz. nuvoloso
Parz. nuvoloso
 Vento da SSE
Vento: SSE 15 km/h
Temperatura: 10°C
Temperatura Vento: 8°C
P.to Rugiada: 8°C
Umidità: 88%
Barometro: 1021 hPa
Nuvole: Parz. nuvoloso
Visibility: 10 km
Cloud details: Parz. nuvoloso 183 m
Parz. nuvoloso 305 m
2021/08/03 13:55 LIVR 031355Z 15008KT 9999 SCT006TCU SCT010 10/08 Q1021 RMK OVC MON INC VIS MIN 9999
 
LIPU - Padova (civ/It-A, Italy
Distance from station: SO 77km
Dati ricevuti: 03/08/2021 08:00
DATI Obsoleti
Sereno
Sereno
 Vento da Variabile
Vento: Variabile 6 km/h
Temperatura: 20°C
P.to Rugiada: 16°C
Umidità: 78%
Barometro: 1015 hPa
Summary: Sereno
Visibility: superiore a 10 km
2021/08/03 06:00 LIPU 030600Z VRB03KT CAVOK 20/16 Q1015